sensor_id;sensor_type;location;lat;lon;timestamp;P1;durP1;ratioP1;P2;durP2;ratioP2
10144;SDS011;5113;41.822;23.564;2023-06-19T00:00:35;3.47;;;3.17;;
10144;SDS011;5113;41.822;23.564;2023-06-19T00:03:43;2.70;;;2.60;;
10144;SDS011;5113;41.822;23.564;2023-06-19T00:06:49;3.37;;;3.17;;
10144;SDS011;5113;41.822;23.564;2023-06-19T00:09:57;3.17;;;2.97;;
10144;SDS011;5113;41.822;23.564;2023-06-19T00:13:03;3.47;;;3.27;;
10144;SDS011;5113;41.822;23.564;2023-06-19T00:16:10;3.43;;;3.23;;
10144;SDS011;5113;41.822;23.564;2023-06-19T00:19:16;3.63;;;3.43;;
10144;SDS011;5113;41.822;23.564;2023-06-19T00:22:24;4.03;;;3.73;;
10144;SDS011;5113;41.822;23.564;2023-06-19T00:25:32;3.90;;;3.63;;
10144;SDS011;5113;41.822;23.564;2023-06-19T00:28:39;2.90;;;2.80;;
10144;SDS011;5113;41.822;23.564;2023-06-19T00:31:48;3.57;;;3.37;;
10144;SDS011;5113;41.822;23.564;2023-06-19T00:34:54;4.03;;;3.83;;
10144;SDS011;5113;41.822;23.564;2023-06-19T00:38:01;3.37;;;3.27;;
10144;SDS011;5113;41.822;23.564;2023-06-19T00:41:09;3.97;;;3.70;;
10144;SDS011;5113;41.822;23.564;2023-06-19T00:44:15;3.90;;;3.70;;
10144;SDS011;5113;41.822;23.564;2023-06-19T00:47:22;3.53;;;3.30;;
10144;SDS011;5113;41.822;23.564;2023-06-19T00:50:30;4.13;;;3.93;;
10144;SDS011;5113;41.822;23.564;2023-06-19T00:53:37;3.80;;;3.60;;
10144;SDS011;5113;41.822;23.564;2023-06-19T00:56:45;3.93;;;3.63;;
10144;SDS011;5113;41.822;23.564;2023-06-19T00:59:53;4.30;;;4.00;;
10144;SDS011;5113;41.822;23.564;2023-06-19T01:03:00;4.00;;;3.70;;
10144;SDS011;5113;41.822;23.564;2023-06-19T01:06:08;4.40;;;3.87;;
10144;SDS011;5113;41.822;23.564;2023-06-19T01:09:20;4.20;;;3.93;;
10144;SDS011;5113;41.822;23.564;2023-06-19T01:12:29;4.77;;;4.37;;
10144;SDS011;5113;41.822;23.564;2023-06-19T01:15:40;4.50;;;4.20;;
10144;SDS011;5113;41.822;23.564;2023-06-19T01:18:48;4.97;;;3.70;;
10144;SDS011;5113;41.822;23.564;2023-06-19T01:21:55;4.10;;;3.83;;
10144;SDS011;5113;41.822;23.564;2023-06-19T01:25:04;3.70;;;3.40;;
10144;SDS011;5113;41.822;23.564;2023-06-19T01:28:11;3.87;;;3.60;;
10144;SDS011;5113;41.822;23.564;2023-06-19T01:31:19;4.83;;;3.40;;
10144;SDS011;5113;41.822;23.564;2023-06-19T01:34:30;3.40;;;3.30;;
10144;SDS011;5113;41.822;23.564;2023-06-19T01:37:44;3.63;;;3.43;;
10144;SDS011;5113;41.822;23.564;2023-06-19T01:40:53;4.60;;;4.30;;
10144;SDS011;5113;41.822;23.564;2023-06-19T01:44:01;4.53;;;4.23;;
10144;SDS011;5113;41.822;23.564;2023-06-19T01:47:09;4.10;;;3.90;;
10144;SDS011;5113;41.822;23.564;2023-06-19T01:50:15;4.40;;;4.10;;
10144;SDS011;5113;41.822;23.564;2023-06-19T01:53:22;4.20;;;3.90;;
10144;SDS011;5113;41.822;23.564;2023-06-19T01:56:29;4.20;;;3.90;;
10144;SDS011;5113;41.822;23.564;2023-06-19T01:59:36;3.63;;;3.43;;
10144;SDS011;5113;41.822;23.564;2023-06-19T02:02:42;4.03;;;3.77;;
10144;SDS011;5113;41.822;23.564;2023-06-19T02:05:49;3.93;;;3.63;;
10144;SDS011;5113;41.822;23.564;2023-06-19T02:08:55;3.87;;;3.67;;
10144;SDS011;5113;41.822;23.564;2023-06-19T02:12:04;4.43;;;4.13;;
10144;SDS011;5113;41.822;23.564;2023-06-19T02:15:10;3.83;;;3.63;;
10144;SDS011;5113;41.822;23.564;2023-06-19T02:18:17;4.20;;;3.90;;
10144;SDS011;5113;41.822;23.564;2023-06-19T02:21:23;4.00;;;3.67;;
10144;SDS011;5113;41.822;23.564;2023-06-19T02:24:29;3.90;;;3.60;;
10144;SDS011;5113;41.822;23.564;2023-06-19T02:27:37;4.03;;;3.73;;
10144;SDS011;5113;41.822;23.564;2023-06-19T02:30:44;3.33;;;3.13;;
10144;SDS011;5113;41.822;23.564;2023-06-19T02:33:50;4.03;;;3.73;;
10144;SDS011;5113;41.822;23.564;2023-06-19T02:36:57;3.93;;;3.63;;
10144;SDS011;5113;41.822;23.564;2023-06-19T02:40:03;3.60;;;3.40;;
10144;SDS011;5113;41.822;23.564;2023-06-19T02:43:12;5.87;;;4.40;;
10144;SDS011;5113;41.822;23.564;2023-06-19T02:46:19;4.03;;;3.77;;
10144;SDS011;5113;41.822;23.564;2023-06-19T02:49:25;3.87;;;3.57;;
10144;SDS011;5113;41.822;23.564;2023-06-19T02:52:32;4.57;;;4.07;;
10144;SDS011;5113;41.822;23.564;2023-06-19T02:55:38;4.23;;;3.93;;
10144;SDS011;5113;41.822;23.564;2023-06-19T02:58:45;4.17;;;3.87;;
10144;SDS011;5113;41.822;23.564;2023-06-19T03:01:52;3.40;;;3.20;;
10144;SDS011;5113;41.822;23.564;2023-06-19T03:04:58;3.83;;;3.53;;
10144;SDS011;5113;41.822;23.564;2023-06-19T03:08:04;3.43;;;3.23;;
10144;SDS011;5113;41.822;23.564;2023-06-19T03:11:11;4.37;;;3.97;;
10144;SDS011;5113;41.822;23.564;2023-06-19T03:14:19;4.13;;;3.83;;
10144;SDS011;5113;41.822;23.564;2023-06-19T03:17:25;3.33;;;3.13;;
10144;SDS011;5113;41.822;23.564;2023-06-19T03:20:32;4.07;;;3.77;;
10144;SDS011;5113;41.822;23.564;2023-06-19T03:23:38;3.70;;;3.50;;
10144;SDS011;5113;41.822;23.564;2023-06-19T03:26:46;4.70;;;4.30;;
10144;SDS011;5113;41.822;23.564;2023-06-19T03:29:54;3.77;;;3.47;;
10144;SDS011;5113;41.822;23.564;2023-06-19T03:33:00;3.40;;;3.20;;
10144;SDS011;5113;41.822;23.564;2023-06-19T03:36:07;4.03;;;3.73;;
10144;SDS011;5113;41.822;23.564;2023-06-19T03:39:13;3.73;;;3.53;;
10144;SDS011;5113;41.822;23.564;2023-06-19T03:42:20;3.77;;;3.47;;
10144;SDS011;5113;41.822;23.564;2023-06-19T03:45:27;3.80;;;3.50;;
10144;SDS011;5113;41.822;23.564;2023-06-19T03:48:34;5.60;;;4.17;;
10144;SDS011;5113;41.822;23.564;2023-06-19T03:51:41;3.30;;;3.10;;
10144;SDS011;5113;41.822;23.564;2023-06-19T03:54:47;3.47;;;3.17;;
10144;SDS011;5113;41.822;23.564;2023-06-19T03:57:53;3.20;;;3.00;;
10144;SDS011;5113;41.822;23.564;2023-06-19T04:01:01;3.40;;;3.10;;
10144;SDS011;5113;41.822;23.564;2023-06-19T04:04:08;4.00;;;3.70;;
10144;SDS011;5113;41.822;23.564;2023-06-19T04:07:15;3.40;;;3.20;;
10144;SDS011;5113;41.822;23.564;2023-06-19T04:10:21;4.17;;;3.87;;
10144;SDS011;5113;41.822;23.564;2023-06-19T04:13:28;4.97;;;4.57;;
10144;SDS011;5113;41.822;23.564;2023-06-19T04:16:36;5.07;;;4.67;;
10144;SDS011;5113;41.822;23.564;2023-06-19T04:19:42;22.77;;;14.60;;
10144;SDS011;5113;41.822;23.564;2023-06-19T04:22:48;10.47;;;8.57;;
10144;SDS011;5113;41.822;23.564;2023-06-19T04:25:54;7.80;;;5.50;;
10144;SDS011;5113;41.822;23.564;2023-06-19T04:29:01;9.20;;;6.47;;
10144;SDS011;5113;41.822;23.564;2023-06-19T04:32:09;4.20;;;3.80;;
10144;SDS011;5113;41.822;23.564;2023-06-19T04:35:17;2.67;;;2.57;;
10144;SDS011;5113;41.822;23.564;2023-06-19T04:38:23;8.23;;;6.93;;
10144;SDS011;5113;41.822;23.564;2023-06-19T04:41:30;4.27;;;3.87;;
10144;SDS011;5113;41.822;23.564;2023-06-19T04:44:36;3.93;;;3.60;;
10144;SDS011;5113;41.822;23.564;2023-06-19T04:47:44;3.53;;;3.23;;
10144;SDS011;5113;41.822;23.564;2023-06-19T04:50:56;3.23;;;3.03;;
10144;SDS011;5113;41.822;23.564;2023-06-19T04:54:04;3.40;;;3.20;;
10144;SDS011;5113;41.822;23.564;2023-06-19T04:57:10;7.60;;;4.90;;
10144;SDS011;5113;41.822;23.564;2023-06-19T05:00:17;3.57;;;2.87;;
10144;SDS011;5113;41.822;23.564;2023-06-19T05:03:27;3.27;;;3.03;;
10144;SDS011;5113;41.822;23.564;2023-06-19T05:06:34;4.70;;;3.33;;
10144;SDS011;5113;41.822;23.564;2023-06-19T05:09:40;4.13;;;3.83;;
10144;SDS011;5113;41.822;23.564;2023-06-19T05:12:46;6.90;;;3.97;;
10144;SDS011;5113;41.822;23.564;2023-06-19T05:15:53;5.73;;;3.80;;
10144;SDS011;5113;41.822;23.564;2023-06-19T05:19:02;4.87;;;3.40;;
10144;SDS011;5113;41.822;23.564;2023-06-19T05:22:08;3.77;;;3.13;;
10144;SDS011;5113;41.822;23.564;2023-06-19T05:25:14;6.50;;;3.93;;
10144;SDS011;5113;41.822;23.564;2023-06-19T05:28:21;3.57;;;3.30;;
10144;SDS011;5113;41.822;23.564;2023-06-19T05:31:27;3.57;;;3.27;;
10144;SDS011;5113;41.822;23.564;2023-06-19T05:34:35;4.53;;;3.77;;
10144;SDS011;5113;41.822;23.564;2023-06-19T05:37:42;4.70;;;3.30;;
10144;SDS011;5113;41.822;23.564;2023-06-19T05:40:48;3.40;;;3.10;;
10144;SDS011;5113;41.822;23.564;2023-06-19T05:43:56;3.63;;;3.30;;
10144;SDS011;5113;41.822;23.564;2023-06-19T05:47:03;4.13;;;3.83;;
10144;SDS011;5113;41.822;23.564;2023-06-19T05:50:11;4.07;;;3.63;;
10144;SDS011;5113;41.822;23.564;2023-06-19T05:53:18;3.33;;;3.03;;
10144;SDS011;5113;41.822;23.564;2023-06-19T05:56:43;3.33;;;3.10;;
10144;SDS011;5113;41.822;23.564;2023-06-19T05:59:51;4.07;;;3.77;;
10144;SDS011;5113;41.822;23.564;2023-06-19T06:02:58;3.57;;;3.23;;
10144;SDS011;5113;41.822;23.564;2023-06-19T06:06:06;3.40;;;2.93;;
10144;SDS011;5113;41.822;23.564;2023-06-19T06:09:13;3.20;;;3.00;;
10144;SDS011;5113;41.822;23.564;2023-06-19T06:12:20;4.03;;;3.67;;
10144;SDS011;5113;41.822;23.564;2023-06-19T06:15:27;4.60;;;3.83;;
10144;SDS011;5113;41.822;23.564;2023-06-19T06:18:34;4.73;;;4.33;;
10144;SDS011;5113;41.822;23.564;2023-06-19T06:21:42;3.70;;;3.40;;
10144;SDS011;5113;41.822;23.564;2023-06-19T06:24:48;4.63;;;4.23;;
10144;SDS011;5113;41.822;23.564;2023-06-19T06:27:55;4.10;;;3.80;;
10144;SDS011;5113;41.822;23.564;2023-06-19T06:31:02;4.43;;;3.97;;
10144;SDS011;5113;41.822;23.564;2023-06-19T06:34:08;4.00;;;3.70;;
10144;SDS011;5113;41.822;23.564;2023-06-19T06:37:16;4.33;;;3.93;;
10144;SDS011;5113;41.822;23.564;2023-06-19T06:40:27;3.47;;;3.20;;
10144;SDS011;5113;41.822;23.564;2023-06-19T06:43:33;4.43;;;4.00;;
10144;SDS011;5113;41.822;23.564;2023-06-19T06:46:39;3.93;;;3.63;;
10144;SDS011;5113;41.822;23.564;2023-06-19T06:49:45;4.87;;;3.60;;
10144;SDS011;5113;41.822;23.564;2023-06-19T06:52:53;4.27;;;3.50;;
10144;SDS011;5113;41.822;23.564;2023-06-19T06:56:00;4.83;;;4.13;;
10144;SDS011;5113;41.822;23.564;2023-06-19T06:59:07;4.47;;;4.07;;
10144;SDS011;5113;41.822;23.564;2023-06-19T07:02:14;5.80;;;4.23;;
10144;SDS011;5113;41.822;23.564;2023-06-19T07:05:20;4.33;;;4.03;;
10144;SDS011;5113;41.822;23.564;2023-06-19T07:08:28;3.90;;;3.60;;
10144;SDS011;5113;41.822;23.564;2023-06-19T07:11:34;5.60;;;4.10;;
10144;SDS011;5113;41.822;23.564;2023-06-19T07:14:40;3.97;;;3.67;;
10144;SDS011;5113;41.822;23.564;2023-06-19T07:17:46;3.97;;;3.67;;
10144;SDS011;5113;41.822;23.564;2023-06-19T07:20:53;4.10;;;3.80;;
10144;SDS011;5113;41.822;23.564;2023-06-19T07:24:01;4.80;;;4.40;;
10144;SDS011;5113;41.822;23.564;2023-06-19T07:27:07;4.33;;;3.93;;
10144;SDS011;5113;41.822;23.564;2023-06-19T07:30:13;5.07;;;4.57;;
10144;SDS011;5113;41.822;23.564;2023-06-19T07:33:20;5.10;;;4.60;;
10144;SDS011;5113;41.822;23.564;2023-06-19T07:36:27;5.43;;;4.80;;
10144;SDS011;5113;41.822;23.564;2023-06-19T07:39:35;5.80;;;4.63;;
10144;SDS011;5113;41.822;23.564;2023-06-19T07:42:42;4.47;;;4.07;;
10144;SDS011;5113;41.822;23.564;2023-06-19T07:45:49;4.70;;;4.30;;
10144;SDS011;5113;41.822;23.564;2023-06-19T07:48:56;4.67;;;4.10;;
10144;SDS011;5113;41.822;23.564;2023-06-19T07:52:03;5.23;;;4.40;;
10144;SDS011;5113;41.822;23.564;2023-06-19T07:55:13;4.57;;;4.10;;
10144;SDS011;5113;41.822;23.564;2023-06-19T07:58:19;3.70;;;3.40;;
10144;SDS011;5113;41.822;23.564;2023-06-19T08:01:27;4.93;;;3.93;;
10144;SDS011;5113;41.822;23.564;2023-06-19T08:04:34;4.30;;;3.93;;
10144;SDS011;5113;41.822;23.564;2023-06-19T08:07:40;4.57;;;4.17;;
10144;SDS011;5113;41.822;23.564;2023-06-19T08:10:48;3.77;;;3.47;;
10144;SDS011;5113;41.822;23.564;2023-06-19T08:13:55;3.70;;;3.50;;
10144;SDS011;5113;41.822;23.564;2023-06-19T08:17:02;4.43;;;3.90;;
10144;SDS011;5113;41.822;23.564;2023-06-19T08:20:09;4.10;;;3.80;;
10144;SDS011;5113;41.822;23.564;2023-06-19T08:23:16;5.83;;;3.80;;
10144;SDS011;5113;41.822;23.564;2023-06-19T08:26:24;4.13;;;3.73;;
10144;SDS011;5113;41.822;23.564;2023-06-19T08:29:31;3.93;;;3.63;;
10144;SDS011;5113;41.822;23.564;2023-06-19T08:32:37;4.50;;;4.10;;
10144;SDS011;5113;41.822;23.564;2023-06-19T08:35:43;4.60;;;4.20;;
10144;SDS011;5113;41.822;23.564;2023-06-19T08:38:51;5.73;;;4.43;;
10144;SDS011;5113;41.822;23.564;2023-06-19T08:41:58;4.40;;;4.03;;
10144;SDS011;5113;41.822;23.564;2023-06-19T08:45:05;3.70;;;3.37;;
10144;SDS011;5113;41.822;23.564;2023-06-19T08:48:13;3.90;;;3.60;;
10144;SDS011;5113;41.822;23.564;2023-06-19T08:51:20;4.90;;;4.50;;
10144;SDS011;5113;41.822;23.564;2023-06-19T08:54:26;4.60;;;4.20;;
10144;SDS011;5113;41.822;23.564;2023-06-19T08:57:34;4.30;;;4.00;;
10144;SDS011;5113;41.822;23.564;2023-06-19T09:00:41;4.80;;;4.27;;
10144;SDS011;5113;41.822;23.564;2023-06-19T09:03:53;4.23;;;3.83;;
10144;SDS011;5113;41.822;23.564;2023-06-19T09:07:01;4.00;;;3.70;;
10144;SDS011;5113;41.822;23.564;2023-06-19T09:10:13;5.03;;;4.63;;
10144;SDS011;5113;41.822;23.564;2023-06-19T09:13:23;4.67;;;4.33;;
10144;SDS011;5113;41.822;23.564;2023-06-19T09:16:36;5.70;;;4.93;;
10144;SDS011;5113;41.822;23.564;2023-06-19T09:19:47;5.57;;;4.73;;
10144;SDS011;5113;41.822;23.564;2023-06-19T09:22:54;4.97;;;4.57;;
10144;SDS011;5113;41.822;23.564;2023-06-19T09:26:01;4.60;;;4.20;;
10144;SDS011;5113;41.822;23.564;2023-06-19T09:29:12;4.75;;;4.35;;
10144;SDS011;5113;41.822;23.564;2023-06-19T09:32:26;4.55;;;4.20;;
10144;SDS011;5113;41.822;23.564;2023-06-19T09:35:34;5.83;;;5.00;;
10144;SDS011;5113;41.822;23.564;2023-06-19T09:38:40;4.87;;;4.37;;
10144;SDS011;5113;41.822;23.564;2023-06-19T09:41:46;5.07;;;4.40;;
10144;SDS011;5113;41.822;23.564;2023-06-19T09:44:59;4.68;;;4.38;;
10144;SDS011;5113;41.822;23.564;2023-06-19T09:48:09;4.72;;;4.32;;
10144;SDS011;5113;41.822;23.564;2023-06-19T09:51:23;5.85;;;5.25;;
10144;SDS011;5113;41.822;23.564;2023-06-19T09:54:34;6.30;;;5.70;;
10144;SDS011;5113;41.822;23.564;2023-06-19T09:57:42;6.70;;;6.13;;
10144;SDS011;5113;41.822;23.564;2023-06-19T10:00:51;8.10;;;6.50;;
10144;SDS011;5113;41.822;23.564;2023-06-19T10:04:03;6.05;;;5.45;;
10144;SDS011;5113;41.822;23.564;2023-06-19T10:07:15;5.73;;;5.13;;
10144;SDS011;5113;41.822;23.564;2023-06-19T10:10:23;4.18;;;3.92;;
10144;SDS011;5113;41.822;23.564;2023-06-19T10:13:32;6.27;;;5.33;;
10144;SDS011;5113;41.822;23.564;2023-06-19T10:16:42;7.43;;;5.77;;
10144;SDS011;5113;41.822;23.564;2023-06-19T10:19:49;6.72;;;5.32;;
10144;SDS011;5113;41.822;23.564;2023-06-19T10:22:57;6.47;;;5.85;;
10144;SDS011;5113;41.822;23.564;2023-06-19T10:26:07;4.80;;;4.00;;
10144;SDS011;5113;41.822;23.564;2023-06-19T10:29:14;5.15;;;4.75;;
10144;SDS011;5113;41.822;23.564;2023-06-19T10:32:23;11.57;;;6.18;;
10144;SDS011;5113;41.822;23.564;2023-06-19T10:35:36;6.07;;;5.57;;
10144;SDS011;5113;41.822;23.564;2023-06-19T10:38:44;5.03;;;4.63;;
10144;SDS011;5113;41.822;23.564;2023-06-19T10:41:52;4.13;;;3.83;;
10144;SDS011;5113;41.822;23.564;2023-06-19T10:45:01;5.15;;;4.65;;
10144;SDS011;5113;41.822;23.564;2023-06-19T10:48:10;6.82;;;4.43;;
10144;SDS011;5113;41.822;23.564;2023-06-19T10:51:18;4.90;;;4.50;;
10144;SDS011;5113;41.822;23.564;2023-06-19T10:54:24;4.78;;;4.35;;
10144;SDS011;5113;41.822;23.564;2023-06-19T10:57:31;3.95;;;3.67;;
10144;SDS011;5113;41.822;23.564;2023-06-19T11:00:37;4.07;;;3.78;;
10144;SDS011;5113;41.822;23.564;2023-06-19T11:03:46;3.83;;;3.45;;
10144;SDS011;5113;41.822;23.564;2023-06-19T11:06:53;4.40;;;4.05;;
10144;SDS011;5113;41.822;23.564;2023-06-19T11:09:59;5.55;;;4.47;;
10144;SDS011;5113;41.822;23.564;2023-06-19T11:13:05;4.00;;;3.75;;
10144;SDS011;5113;41.822;23.564;2023-06-19T11:16:13;4.68;;;4.28;;
10144;SDS011;5113;41.822;23.564;2023-06-19T11:19:22;4.40;;;4.00;;
10144;SDS011;5113;41.822;23.564;2023-06-19T11:22:38;4.45;;;4.05;;
10144;SDS011;5113;41.822;23.564;2023-06-19T11:25:46;3.90;;;3.60;;
10144;SDS011;5113;41.822;23.564;2023-06-19T11:28:52;3.42;;;3.22;;
10144;SDS011;5113;41.822;23.564;2023-06-19T11:32:06;3.55;;;3.35;;
10144;SDS011;5113;41.822;23.564;2023-06-19T11:35:16;3.95;;;3.65;;
10144;SDS011;5113;41.822;23.564;2023-06-19T11:38:26;4.03;;;3.15;;
10144;SDS011;5113;41.822;23.564;2023-06-19T11:41:34;3.95;;;3.60;;
10144;SDS011;5113;41.822;23.564;2023-06-19T11:44:52;3.42;;;3.20;;
10144;SDS011;5113;41.822;23.564;2023-06-19T11:47:59;3.40;;;3.20;;
10144;SDS011;5113;41.822;23.564;2023-06-19T11:51:12;3.65;;;3.45;;
10144;SDS011;5113;41.822;23.564;2023-06-19T11:54:19;4.40;;;3.95;;
10144;SDS011;5113;41.822;23.564;2023-06-19T11:57:26;4.25;;;3.72;;
10144;SDS011;5113;41.822;23.564;2023-06-19T12:00:33;3.35;;;3.13;;
10144;SDS011;5113;41.822;23.564;2023-06-19T12:03:39;3.05;;;2.90;;
10144;SDS011;5113;41.822;23.564;2023-06-19T12:06:48;3.30;;;3.10;;
10144;SDS011;5113;41.822;23.564;2023-06-19T12:09:54;3.20;;;3.00;;
10144;SDS011;5113;41.822;23.564;2023-06-19T12:13:01;3.17;;;2.97;;
10144;SDS011;5113;41.822;23.564;2023-06-19T12:16:07;3.20;;;3.00;;
10144;SDS011;5113;41.822;23.564;2023-06-19T12:19:14;2.90;;;2.78;;
10144;SDS011;5113;41.822;23.564;2023-06-19T12:22:25;3.15;;;2.95;;
10144;SDS011;5113;41.822;23.564;2023-06-19T12:25:32;3.95;;;3.10;;
10144;SDS011;5113;41.822;23.564;2023-06-19T12:28:38;3.28;;;3.08;;
10144;SDS011;5113;41.822;23.564;2023-06-19T12:31:45;3.35;;;3.15;;
10144;SDS011;5113;41.822;23.564;2023-06-19T12:34:52;2.80;;;2.70;;
10144;SDS011;5113;41.822;23.564;2023-06-19T12:38:01;3.60;;;3.40;;
10144;SDS011;5113;41.822;23.564;2023-06-19T12:41:11;3.10;;;2.92;;
10144;SDS011;5113;41.822;23.564;2023-06-19T12:44:17;4.65;;;3.50;;
10144;SDS011;5113;41.822;23.564;2023-06-19T12:47:23;2.95;;;2.72;;
10144;SDS011;5113;41.822;23.564;2023-06-19T12:50:30;3.10;;;2.90;;
10144;SDS011;5113;41.822;23.564;2023-06-19T12:53:38;3.55;;;3.25;;
10144;SDS011;5113;41.822;23.564;2023-06-19T12:56:45;3.20;;;3.00;;
10144;SDS011;5113;41.822;23.564;2023-06-19T12:59:51;2.85;;;2.70;;
10144;SDS011;5113;41.822;23.564;2023-06-19T13:02:58;3.13;;;2.92;;
10144;SDS011;5113;41.822;23.564;2023-06-19T13:06:04;3.55;;;2.80;;
10144;SDS011;5113;41.822;23.564;2023-06-19T13:09:13;2.92;;;2.72;;
10144;SDS011;5113;41.822;23.564;2023-06-19T13:12:21;2.40;;;2.30;;
10144;SDS011;5113;41.822;23.564;2023-06-19T13:15:28;2.70;;;2.60;;
10144;SDS011;5113;41.822;23.564;2023-06-19T13:18:34;3.10;;;2.90;;
10144;SDS011;5113;41.822;23.564;2023-06-19T13:21:40;2.90;;;2.70;;
10144;SDS011;5113;41.822;23.564;2023-06-19T13:24:48;3.20;;;3.00;;
10144;SDS011;5113;41.822;23.564;2023-06-19T13:27:55;5.53;;;3.10;;
10144;SDS011;5113;41.822;23.564;2023-06-19T13:31:01;2.67;;;2.47;;
10144;SDS011;5113;41.822;23.564;2023-06-19T13:34:08;3.55;;;3.25;;
10144;SDS011;5113;41.822;23.564;2023-06-19T13:37:15;2.88;;;2.67;;
10144;SDS011;5113;41.822;23.564;2023-06-19T13:40:22;2.72;;;2.60;;
10144;SDS011;5113;41.822;23.564;2023-06-19T13:43:29;3.75;;;3.53;;
10144;SDS011;5113;41.822;23.564;2023-06-19T13:46:37;4.55;;;3.70;;
10144;SDS011;5113;41.822;23.564;2023-06-19T13:49:44;3.30;;;3.10;;
10144;SDS011;5113;41.822;23.564;2023-06-19T13:52:50;3.13;;;2.92;;
10144;SDS011;5113;41.822;23.564;2023-06-19T13:55:57;3.30;;;3.00;;
10144;SDS011;5113;41.822;23.564;2023-06-19T13:59:04;2.70;;;2.60;;
10144;SDS011;5113;41.822;23.564;2023-06-19T14:02:10;2.53;;;2.33;;
10144;SDS011;5113;41.822;23.564;2023-06-19T14:05:17;2.50;;;2.30;;
10144;SDS011;5113;41.822;23.564;2023-06-19T14:08:23;2.72;;;2.53;;
10144;SDS011;5113;41.822;23.564;2023-06-19T14:11:31;3.38;;;3.08;;
10144;SDS011;5113;41.822;23.564;2023-06-19T14:14:38;2.35;;;2.25;;
10144;SDS011;5113;41.822;23.564;2023-06-19T14:17:44;2.70;;;2.50;;
10144;SDS011;5113;41.822;23.564;2023-06-19T14:20:51;2.97;;;2.70;;
10144;SDS011;5113;41.822;23.564;2023-06-19T14:23:57;3.40;;;3.10;;
10144;SDS011;5113;41.822;23.564;2023-06-19T14:27:06;3.40;;;3.10;;
10144;SDS011;5113;41.822;23.564;2023-06-19T14:30:13;2.95;;;2.75;;
10144;SDS011;5113;41.822;23.564;2023-06-19T14:33:20;3.63;;;3.03;;
10144;SDS011;5113;41.822;23.564;2023-06-19T14:36:26;3.30;;;3.00;;
10144;SDS011;5113;41.822;23.564;2023-06-19T14:39:33;7.05;;;3.50;;
10144;SDS011;5113;41.822;23.564;2023-06-19T14:42:41;4.35;;;3.60;;
10144;SDS011;5113;41.822;23.564;2023-06-19T14:45:47;3.42;;;3.13;;
10144;SDS011;5113;41.822;23.564;2023-06-19T14:48:54;2.65;;;2.45;;
10144;SDS011;5113;41.822;23.564;2023-06-19T14:52:04;3.50;;;3.00;;
10144;SDS011;5113;41.822;23.564;2023-06-19T14:55:11;5.57;;;3.90;;
10144;SDS011;5113;41.822;23.564;2023-06-19T14:58:19;3.33;;;3.03;;
10144;SDS011;5113;41.822;23.564;2023-06-19T15:01:25;5.85;;;3.47;;
10144;SDS011;5113;41.822;23.564;2023-06-19T15:04:32;3.72;;;3.28;;
10144;SDS011;5113;41.822;23.564;2023-06-19T15:07:39;3.97;;;3.58;;
10144;SDS011;5113;41.822;23.564;2023-06-19T15:10:45;3.00;;;2.70;;
10144;SDS011;5113;41.822;23.564;2023-06-19T15:13:52;3.40;;;3.10;;
10144;SDS011;5113;41.822;23.564;2023-06-19T15:16:59;3.75;;;3.00;;
10144;SDS011;5113;41.822;23.564;2023-06-19T15:20:06;3.55;;;2.28;;
10144;SDS011;5113;41.822;23.564;2023-06-19T15:23:14;2.53;;;2.35;;
10144;SDS011;5113;41.822;23.564;2023-06-19T15:26:20;2.70;;;2.50;;
10144;SDS011;5113;41.822;23.564;2023-06-19T15:29:28;2.78;;;2.50;;
10144;SDS011;5113;41.822;23.564;2023-06-19T15:32:35;3.10;;;2.83;;
10144;SDS011;5113;41.822;23.564;2023-06-19T15:35:41;3.03;;;2.83;;
10144;SDS011;5113;41.822;23.564;2023-06-19T15:38:47;3.35;;;2.33;;
10144;SDS011;5113;41.822;23.564;2023-06-19T15:41:54;2.72;;;2.55;;
10144;SDS011;5113;41.822;23.564;2023-06-19T15:45:02;2.75;;;2.55;;
10144;SDS011;5113;41.822;23.564;2023-06-19T15:48:09;2.60;;;2.40;;
10144;SDS011;5113;41.822;23.564;2023-06-19T15:51:16;3.92;;;2.65;;
10144;SDS011;5113;41.822;23.564;2023-06-19T15:54:23;3.60;;;2.75;;
10144;SDS011;5113;41.822;23.564;2023-06-19T15:57:30;2.75;;;2.45;;
10144;SDS011;5113;41.822;23.564;2023-06-19T16:00:38;3.72;;;2.65;;
10144;SDS011;5113;41.822;23.564;2023-06-19T16:03:44;3.25;;;2.80;;
10144;SDS011;5113;41.822;23.564;2023-06-19T16:06:51;3.50;;;2.67;;
10144;SDS011;5113;41.822;23.564;2023-06-19T16:09:57;2.55;;;2.35;;
10144;SDS011;5113;41.822;23.564;2023-06-19T16:13:04;3.25;;;2.78;;
10144;SDS011;5113;41.822;23.564;2023-06-19T16:16:12;4.13;;;2.80;;
10144;SDS011;5113;41.822;23.564;2023-06-19T16:19:18;2.42;;;2.30;;
10144;SDS011;5113;41.822;23.564;2023-06-19T16:22:25;2.30;;;2.20;;
10144;SDS011;5113;41.822;23.564;2023-06-19T16:25:31;2.70;;;2.50;;
10144;SDS011;5113;41.822;23.564;2023-06-19T16:28:38;2.80;;;2.63;;
10144;SDS011;5113;41.822;23.564;2023-06-19T16:31:46;2.90;;;2.50;;
10144;SDS011;5113;41.822;23.564;2023-06-19T16:35:08;3.10;;;2.80;;
10144;SDS011;5113;41.822;23.564;2023-06-19T16:38:14;2.50;;;2.30;;
10144;SDS011;5113;41.822;23.564;2023-06-19T16:41:21;2.50;;;2.30;;
10144;SDS011;5113;41.822;23.564;2023-06-19T16:44:27;2.77;;;2.57;;
10144;SDS011;5113;41.822;23.564;2023-06-19T16:47:35;3.03;;;2.73;;
10144;SDS011;5113;41.822;23.564;2023-06-19T16:50:41;3.17;;;2.83;;
10144;SDS011;5113;41.822;23.564;2023-06-19T16:53:48;3.73;;;3.33;;
10144;SDS011;5113;41.822;23.564;2023-06-19T16:56:54;4.17;;;3.03;;
10144;SDS011;5113;41.822;23.564;2023-06-19T17:00:01;3.10;;;2.80;;
10144;SDS011;5113;41.822;23.564;2023-06-19T17:03:10;2.77;;;2.57;;
10144;SDS011;5113;41.822;23.564;2023-06-19T17:06:17;3.70;;;2.93;;
10144;SDS011;5113;41.822;23.564;2023-06-19T17:09:24;3.53;;;3.23;;
10144;SDS011;5113;41.822;23.564;2023-06-19T17:12:30;2.97;;;2.70;;
10144;SDS011;5113;41.822;23.564;2023-06-19T17:15:38;5.27;;;2.70;;
10144;SDS011;5113;41.822;23.564;2023-06-19T17:18:46;3.00;;;2.80;;
10144;SDS011;5113;41.822;23.564;2023-06-19T17:21:53;3.13;;;2.83;;
10144;SDS011;5113;41.822;23.564;2023-06-19T17:24:59;2.87;;;2.57;;
10144;SDS011;5113;41.822;23.564;2023-06-19T17:28:05;5.07;;;3.00;;
10144;SDS011;5113;41.822;23.564;2023-06-19T17:31:12;3.27;;;2.83;;
10144;SDS011;5113;41.822;23.564;2023-06-19T17:34:20;2.73;;;2.53;;
10144;SDS011;5113;41.822;23.564;2023-06-19T17:37:27;3.73;;;3.10;;
10144;SDS011;5113;41.822;23.564;2023-06-19T17:40:33;3.20;;;2.90;;
10144;SDS011;5113;41.822;23.564;2023-06-19T17:43:39;6.03;;;3.73;;
10144;SDS011;5113;41.822;23.564;2023-06-19T17:46:46;4.27;;;2.87;;
10144;SDS011;5113;41.822;23.564;2023-06-19T17:49:53;6.67;;;3.40;;
10144;SDS011;5113;41.822;23.564;2023-06-19T17:53:00;3.83;;;3.03;;
10144;SDS011;5113;41.822;23.564;2023-06-19T17:56:08;3.07;;;2.80;;
10144;SDS011;5113;41.822;23.564;2023-06-19T17:59:14;2.97;;;2.73;;
10144;SDS011;5113;41.822;23.564;2023-06-19T18:02:20;3.57;;;3.10;;
10144;SDS011;5113;41.822;23.564;2023-06-19T18:05:29;4.93;;;3.17;;
10144;SDS011;5113;41.822;23.564;2023-06-19T18:08:35;3.13;;;2.93;;
10144;SDS011;5113;41.822;23.564;2023-06-19T18:11:41;2.80;;;2.57;;
10144;SDS011;5113;41.822;23.564;2023-06-19T18:14:47;3.83;;;3.07;;
10144;SDS011;5113;41.822;23.564;2023-06-19T18:17:53;3.23;;;2.93;;
10144;SDS011;5113;41.822;23.564;2023-06-19T18:21:01;2.80;;;2.60;;
10144;SDS011;5113;41.822;23.564;2023-06-19T18:24:07;7.47;;;5.47;;
10144;SDS011;5113;41.822;23.564;2023-06-19T18:27:14;4.20;;;3.80;;
10144;SDS011;5113;41.822;23.564;2023-06-19T18:30:20;7.20;;;3.47;;
10144;SDS011;5113;41.822;23.564;2023-06-19T18:33:27;4.07;;;3.47;;
10144;SDS011;5113;41.822;23.564;2023-06-19T18:36:35;2.97;;;2.63;;
10144;SDS011;5113;41.822;23.564;2023-06-19T18:39:41;3.17;;;2.90;;
10144;SDS011;5113;41.822;23.564;2023-06-19T18:42:48;3.67;;;3.27;;
10144;SDS011;5113;41.822;23.564;2023-06-19T18:45:54;3.10;;;2.90;;
10144;SDS011;5113;41.822;23.564;2023-06-19T18:49:00;4.87;;;3.20;;